Sainte-Anne-Du-Lac, Canada
Current Conditions -  °F | °C
As of 9:00 AM on Monday 22 Dec 2014 (Local Time) from CYND Reporting Station
Haze Haze  
Wind Chill:   Ceiling: 800
Heat Index: 18°   Visibility: 4mi
Dew Point: 16°   Wind: 7mph
Humidity: 93%   Direction: 80°E
Pressure: 30.4"   Gusts: NA
Location:  46.87°N, 75.32°W
Report Text: CYND 221400Z 08006KT 4SM BR OVC008 M08/M09 A3040 RMK SF8 SLP298
Loading
Personal Weather Stations






























Interactive Weather Map New forecast layout! Learn more

10-Day Weather Forecast

Advertisements
Track Severe Weather on mobile